createdAt,value
2022-10-04T00:00:07.544Z,9.90
2022-10-04T00:01:01.284Z,9.90
2022-10-04T00:02:10.198Z,9.90
2022-10-04T00:03:06.043Z,9.90
2022-10-04T00:04:04.763Z,9.90
2022-10-04T00:05:05.522Z,9.90
2022-10-04T00:06:01.257Z,9.90
2022-10-04T00:07:10.251Z,9.90
2022-10-04T00:08:05.675Z,9.90
2022-10-04T00:09:05.177Z,9.90
2022-10-04T00:10:04.981Z,9.90
2022-10-04T00:11:03.420Z,9.90
2022-10-04T00:12:02.131Z,9.90
2022-10-04T00:13:00.278Z,9.90
2022-10-04T00:14:04.410Z,9.90
2022-10-04T00:15:03.092Z,9.90
2022-10-04T00:16:01.087Z,9.90
2022-10-04T00:17:07.858Z,9.90
2022-10-04T00:18:10.183Z,9.90
2022-10-04T00:19:10.206Z,9.90
2022-10-04T00:20:01.269Z,9.90
2022-10-04T00:21:01.921Z,9.90
2022-10-04T00:22:10.200Z,11.20
2022-10-04T00:23:10.177Z,11.20
2022-10-04T00:24:10.181Z,11.20
2022-10-04T00:25:07.716Z,11.20
2022-10-04T00:26:01.476Z,11.20
2022-10-04T00:27:10.231Z,11.20
2022-10-04T00:28:10.241Z,11.20
2022-10-04T00:29:10.185Z,11.20
2022-10-04T00:30:01.284Z,11.20
2022-10-04T00:31:09.153Z,11.20
2022-10-04T00:32:10.180Z,11.20
2022-10-04T00:33:01.874Z,11.20
2022-10-04T00:34:03.587Z,11.20
2022-10-04T00:35:00.307Z,11.20
2022-10-04T00:36:10.171Z,11.20
2022-10-04T00:37:00.958Z,11.20
2022-10-04T00:38:10.183Z,11.20
2022-10-04T00:39:02.523Z,11.20
2022-10-04T00:40:08.455Z,11.20
2022-10-04T00:41:03.380Z,11.20
2022-10-04T00:42:10.171Z,11.20
2022-10-04T00:43:00.249Z,11.20
2022-10-04T00:44:01.252Z,11.20
2022-10-04T00:45:10.203Z,11.20
2022-10-04T00:46:06.046Z,11.20
2022-10-04T00:47:02.298Z,11.20
2022-10-04T00:48:04.202Z,11.20
2022-10-04T00:49:03.090Z,11.20
2022-10-04T00:50:10.189Z,11.20
2022-10-04T00:51:05.069Z,12.20
2022-10-04T00:52:02.368Z,12.20
2022-10-04T00:53:01.863Z,12.20
2022-10-04T00:54:04.142Z,12.20
2022-10-04T00:55:05.932Z,12.20
2022-10-04T00:56:02.148Z,12.20
2022-10-04T00:57:03.565Z,12.20
2022-10-04T00:58:02.151Z,12.20
2022-10-04T00:59:10.190Z,12.20
2022-10-04T01:00:01.279Z,12.20
2022-10-04T01:01:00.724Z,12.20
2022-10-04T01:02:04.431Z,12.20
2022-10-04T01:03:04.012Z,12.20
2022-10-04T01:04:02.507Z,12.20
2022-10-04T01:05:01.291Z,12.20
2022-10-04T01:06:03.659Z,12.20
2022-10-04T01:07:01.079Z,12.20
2022-10-04T01:08:07.016Z,12.20
2022-10-04T01:09:02.040Z,12.20
2022-10-04T01:10:03.945Z,12.20
2022-10-04T01:11:10.173Z,12.20
2022-10-04T01:12:03.700Z,12.20
2022-10-04T01:13:06.951Z,12.20
2022-10-04T01:14:03.498Z,12.20
2022-10-04T01:15:10.199Z,12.20
2022-10-04T01:16:00.381Z,12.20
2022-10-04T01:17:01.538Z,12.20
2022-10-04T01:18:10.170Z,12.20
2022-10-04T01:19:10.173Z,12.20
2022-10-04T01:20:00.665Z,12.20
2022-10-04T01:21:03.665Z,10.90
2022-10-04T01:22:07.631Z,10.90
2022-10-04T01:23:01.803Z,10.90
2022-10-04T01:24:00.252Z,10.90
2022-10-04T01:25:00.619Z,10.90
2022-10-04T01:26:01.959Z,10.90
2022-10-04T01:27:00.821Z,10.90
2022-10-04T01:28:00.343Z,10.90
2022-10-04T01:29:00.284Z,10.90
2022-10-04T01:30:01.278Z,10.90
2022-10-04T01:31:00.423Z,10.90
2022-10-04T01:32:00.820Z,10.90
2022-10-04T01:33:00.361Z,10.90
2022-10-04T01:34:00.863Z,10.90
2022-10-04T01:35:00.540Z,10.90
2022-10-04T01:36:00.455Z,10.90
2022-10-04T01:37:00.324Z,10.90
2022-10-04T01:38:02.701Z,10.90
2022-10-04T01:39:00.597Z,10.90
2022-10-04T01:40:00.426Z,10.90
2022-10-04T01:41:01.160Z,10.90
2022-10-04T01:42:00.266Z,10.90
2022-10-04T01:43:03.951Z,10.90
2022-10-04T01:44:01.427Z,10.90
2022-10-04T01:45:03.884Z,10.90
2022-10-04T01:46:04.091Z,10.90
2022-10-04T01:47:04.470Z,10.90
2022-10-04T01:48:02.559Z,10.90
2022-10-04T01:49:02.703Z,10.90
2022-10-04T01:50:01.943Z,10.90
2022-10-04T01:51:05.990Z,12.10
2022-10-04T01:52:05.204Z,12.10
2022-10-04T01:53:07.328Z,12.10
2022-10-04T01:54:06.159Z,12.10
2022-10-04T01:55:03.943Z,12.10
2022-10-04T01:56:10.209Z,12.10
2022-10-04T01:57:06.697Z,12.10
2022-10-04T01:58:05.994Z,12.10
2022-10-04T01:59:04.033Z,12.10
2022-10-04T02:00:02.738Z,12.10
2022-10-04T02:01:04.552Z,12.10
2022-10-04T02:02:05.229Z,12.10
2022-10-04T02:03:03.060Z,12.10
2022-10-04T02:04:04.573Z,12.10
2022-10-04T02:05:01.119Z,12.10
2022-10-04T02:06:03.548Z,12.10
2022-10-04T02:07:01.546Z,12.10
2022-10-04T02:08:03.087Z,12.10
2022-10-04T02:09:05.682Z,12.10
2022-10-04T02:10:03.043Z,12.10
2022-10-04T02:11:02.257Z,12.10
2022-10-04T02:12:00.633Z,12.10
2022-10-04T02:13:00.608Z,12.10
2022-10-04T02:14:00.280Z,12.10
2022-10-04T02:15:01.577Z,12.10
2022-10-04T02:16:01.212Z,12.10
2022-10-04T02:17:02.142Z,12.10
2022-10-04T02:18:00.516Z,12.10
2022-10-04T02:19:01.943Z,12.10
2022-10-04T02:20:01.503Z,12.10
2022-10-04T02:21:00.331Z,12.10
2022-10-04T02:22:02.759Z,12.20
2022-10-04T02:23:00.515Z,12.20
2022-10-04T02:24:00.423Z,12.20
2022-10-04T02:25:01.385Z,12.20
2022-10-04T02:26:04.540Z,12.20
2022-10-04T02:27:00.367Z,12.20
2022-10-04T02:28:00.462Z,12.20
2022-10-04T02:29:00.350Z,12.20
2022-10-04T02:30:01.265Z,12.20
2022-10-04T02:31:01.044Z,12.20
2022-10-04T02:32:02.454Z,12.20
2022-10-04T02:33:00.557Z,12.20
2022-10-04T02:34:00.713Z,12.20
2022-10-04T02:35:01.764Z,12.20
2022-10-04T02:36:00.527Z,12.20
2022-10-04T02:37:01.877Z,12.20
2022-10-04T02:38:03.414Z,12.20
2022-10-04T02:39:01.872Z,12.20
2022-10-04T02:40:10.263Z,12.20
2022-10-04T02:41:00.269Z,12.20
2022-10-04T02:42:03.042Z,12.20
2022-10-04T02:43:06.253Z,12.20
2022-10-04T02:44:01.282Z,12.20
2022-10-04T02:45:01.294Z,12.20
2022-10-04T02:46:03.694Z,12.20
2022-10-04T02:47:10.173Z,12.20
2022-10-04T02:48:01.961Z,12.20
2022-10-04T02:49:04.634Z,12.20
2022-10-04T02:50:05.121Z,12.20
2022-10-04T02:51:06.032Z,12.40
2022-10-04T02:52:02.731Z,12.40
2022-10-04T02:53:08.696Z,12.40
2022-10-04T02:54:10.175Z,12.40
2022-10-04T02:55:03.313Z,12.40
2022-10-04T02:56:01.654Z,12.40
2022-10-04T02:57:00.499Z,12.40
2022-10-04T02:58:00.626Z,12.40
2022-10-04T02:59:02.364Z,12.40
2022-10-04T03:00:10.205Z,12.40
2022-10-04T03:01:00.354Z,12.40
2022-10-04T03:02:00.791Z,12.40
2022-10-04T03:03:10.194Z,12.40
2022-10-04T03:04:00.387Z,12.40
2022-10-04T03:05:04.585Z,12.40
2022-10-04T03:06:00.262Z,12.40
2022-10-04T03:07:03.551Z,12.40
2022-10-04T03:08:00.403Z,12.40
2022-10-04T03:09:02.491Z,12.40
2022-10-04T03:10:01.543Z,12.40
2022-10-04T03:11:01.503Z,12.40
2022-10-04T03:12:00.558Z,12.40
2022-10-04T03:13:00.920Z,12.40
2022-10-04T03:14:01.930Z,12.40
2022-10-04T03:15:00.400Z,12.40
2022-10-04T03:16:00.546Z,12.40
2022-10-04T03:17:01.621Z,12.40
2022-10-04T03:18:00.347Z,12.40
2022-10-04T03:19:00.720Z,12.40
2022-10-04T03:20:00.397Z,12.40
2022-10-04T03:21:01.702Z,12.40
2022-10-04T03:22:01.975Z,9.30
2022-10-04T03:23:00.331Z,9.30
2022-10-04T03:24:01.163Z,9.30
2022-10-04T03:25:00.336Z,9.30
2022-10-04T03:26:03.887Z,9.30
2022-10-04T03:27:02.323Z,9.30
2022-10-04T03:28:01.389Z,9.30
2022-10-04T03:29:00.422Z,9.30
2022-10-04T03:30:00.543Z,9.30
2022-10-04T03:31:00.347Z,9.30
2022-10-04T03:32:01.918Z,9.30
2022-10-04T03:33:00.762Z,9.30
2022-10-04T03:34:00.437Z,9.30
2022-10-04T03:35:02.707Z,9.30
2022-10-04T03:36:00.710Z,9.30
2022-10-04T03:37:01.319Z,9.30
2022-10-04T03:38:03.785Z,9.30
2022-10-04T03:39:06.407Z,9.30
2022-10-04T03:40:00.611Z,9.30
2022-10-04T03:41:01.071Z,9.30
2022-10-04T03:42:03.809Z,9.30
2022-10-04T03:43:01.428Z,9.30
2022-10-04T03:44:04.167Z,9.30
2022-10-04T03:45:01.450Z,9.30
2022-10-04T03:46:01.313Z,9.30
2022-10-04T03:47:01.059Z,9.30
2022-10-04T03:48:04.367Z,9.30
2022-10-04T03:49:00.767Z,9.30
2022-10-04T03:50:03.416Z,9.30
2022-10-04T03:51:02.646Z,9.30
2022-10-04T03:52:01.668Z,8.00
2022-10-04T03:53:06.004Z,8.00
2022-10-04T03:54:01.420Z,8.00
2022-10-04T03:55:02.081Z,8.00
2022-10-04T03:56:04.411Z,8.00
2022-10-04T03:57:00.989Z,8.00
2022-10-04T03:58:00.479Z,8.00
2022-10-04T03:59:01.763Z,8.00
2022-10-04T04:00:00.587Z,8.00
2022-10-04T04:01:03.590Z,8.00
2022-10-04T04:02:00.293Z,8.00
2022-10-04T04:03:02.789Z,8.00
2022-10-04T04:04:10.201Z,8.00
2022-10-04T04:05:00.264Z,8.00
2022-10-04T04:06:03.510Z,8.00
2022-10-04T04:07:02.007Z,8.00
2022-10-04T04:08:07.784Z,8.00
2022-10-04T04:09:01.191Z,8.00
2022-10-04T04:10:00.259Z,8.00
2022-10-04T04:11:01.820Z,8.00
2022-10-04T04:12:01.045Z,8.00
2022-10-04T04:13:10.170Z,8.00
2022-10-04T04:14:04.548Z,8.00
2022-10-04T04:15:00.992Z,8.00
2022-10-04T04:16:01.013Z,8.00
2022-10-04T04:17:10.280Z,8.00
2022-10-04T04:18:04.568Z,8.00
2022-10-04T04:19:01.803Z,8.00
2022-10-04T04:20:06.986Z,8.00
2022-10-04T04:21:01.337Z,8.00
2022-10-04T04:22:00.374Z,6.60
2022-10-04T04:23:02.081Z,6.60
2022-10-04T04:24:02.939Z,6.60
2022-10-04T04:25:01.903Z,6.60
2022-10-04T04:26:10.165Z,6.60
2022-10-04T04:27:01.712Z,6.60
2022-10-04T04:28:04.277Z,6.60
2022-10-04T04:29:05.213Z,6.60
2022-10-04T04:30:02.013Z,6.60
2022-10-04T04:31:02.844Z,6.60
2022-10-04T04:32:04.645Z,6.60
2022-10-04T04:33:05.905Z,6.60
2022-10-04T04:34:01.816Z,6.60
2022-10-04T04:35:01.421Z,6.60
2022-10-04T04:36:05.027Z,6.60
2022-10-04T04:37:02.901Z,6.60
2022-10-04T04:38:02.630Z,6.60
2022-10-04T04:39:10.199Z,6.60
2022-10-04T04:40:10.184Z,6.60
2022-10-04T04:41:07.700Z,6.60
2022-10-04T04:42:02.550Z,6.60
2022-10-04T04:43:01.568Z,6.60
2022-10-04T04:44:00.794Z,6.60
2022-10-04T04:45:09.855Z,6.60
2022-10-04T04:46:26.096Z,6.60
2022-10-04T04:47:00.803Z,6.60
2022-10-04T04:48:00.939Z,6.60
2022-10-04T04:49:03.042Z,6.60
2022-10-04T04:50:04.097Z,6.60
2022-10-04T04:51:00.367Z,6.60
2022-10-04T04:52:00.470Z,6.70
2022-10-04T04:53:10.208Z,6.70
2022-10-04T04:54:02.511Z,6.70
2022-10-04T04:55:00.902Z,6.70
2022-10-04T04:56:04.557Z,6.70
2022-10-04T04:57:00.389Z,6.70
2022-10-04T04:58:00.514Z,6.70
2022-10-04T04:59:01.956Z,6.70
2022-10-04T05:00:00.866Z,6.70
2022-10-04T05:01:04.398Z,6.70
2022-10-04T05:02:00.379Z,6.70
2022-10-04T05:03:01.963Z,6.70
2022-10-04T05:04:03.586Z,6.70
2022-10-04T05:05:10.192Z,6.70
2022-10-04T05:06:00.813Z,6.70
2022-10-04T05:07:02.832Z,6.70
2022-10-04T05:08:07.673Z,6.70
2022-10-04T05:09:00.750Z,6.70
2022-10-04T05:10:00.365Z,6.70
2022-10-04T05:11:03.222Z,6.70
2022-10-04T05:12:04.615Z,6.70
2022-10-04T05:13:00.981Z,6.70
2022-10-04T05:14:09.925Z,6.70
2022-10-04T05:15:00.343Z,6.70
2022-10-04T05:16:00.853Z,6.70
2022-10-04T05:17:00.344Z,6.70
2022-10-04T05:18:02.009Z,6.70
2022-10-04T05:19:04.902Z,6.70
2022-10-04T05:20:01.336Z,6.70
2022-10-04T05:21:06.070Z,6.70
2022-10-04T05:22:05.957Z,6.20
2022-10-04T05:23:00.475Z,6.20
2022-10-04T05:24:10.201Z,6.20
2022-10-04T05:25:02.161Z,6.20
2022-10-04T05:26:01.478Z,6.20
2022-10-04T05:27:02.041Z,6.20
2022-10-04T05:28:01.098Z,6.20
2022-10-04T05:29:06.148Z,6.20
2022-10-04T05:30:01.295Z,6.20
2022-10-04T05:31:10.181Z,6.20
2022-10-04T05:32:10.223Z,6.20
2022-10-04T05:33:01.285Z,6.20
2022-10-04T05:34:00.776Z,6.20
2022-10-04T05:35:00.619Z,6.20
2022-10-04T05:36:10.198Z,6.20
2022-10-04T05:37:00.247Z,6.20
2022-10-04T05:38:10.171Z,6.20
2022-10-04T05:39:06.715Z,6.20
2022-10-04T05:40:01.294Z,6.20
2022-10-04T05:41:05.649Z,6.20
2022-10-04T05:42:00.248Z,6.20
2022-10-04T05:43:00.293Z,6.20
2022-10-04T05:44:00.475Z,6.20
2022-10-04T05:45:00.333Z,6.20
2022-10-04T05:46:10.215Z,6.20
2022-10-04T05:47:01.685Z,6.20
2022-10-04T05:48:00.463Z,6.20
2022-10-04T05:49:05.306Z,6.20
2022-10-04T05:50:01.149Z,6.20
2022-10-04T05:51:00.289Z,6.20
2022-10-04T05:52:10.185Z,4.70
2022-10-04T05:53:10.166Z,4.70
2022-10-04T05:54:00.790Z,4.70
2022-10-04T05:55:10.197Z,4.70
2022-10-04T05:56:01.258Z,4.70
2022-10-04T05:57:10.180Z,4.70
2022-10-04T05:58:00.265Z,4.70
2022-10-04T05:59:01.254Z,4.70
2022-10-04T06:00:04.719Z,4.70
2022-10-04T06:01:10.374Z,4.70
2022-10-04T06:02:10.214Z,4.70
2022-10-04T06:03:08.637Z,4.70
2022-10-04T06:04:10.184Z,4.70
2022-10-04T06:05:01.282Z,4.70
2022-10-04T06:06:10.166Z,4.70
2022-10-04T06:07:08.518Z,4.70
2022-10-04T06:08:04.522Z,4.70
2022-10-04T06:09:10.174Z,4.70
2022-10-04T06:10:10.196Z,4.70
2022-10-04T06:11:04.263Z,4.70
2022-10-04T06:12:01.266Z,4.70
2022-10-04T06:13:00.279Z,4.70
2022-10-04T06:14:01.295Z,4.70
2022-10-04T06:15:08.807Z,4.70
2022-10-04T06:16:10.171Z,4.70
2022-10-04T06:17:10.174Z,4.70
2022-10-04T06:18:03.543Z,4.70
2022-10-04T06:19:01.295Z,4.70
2022-10-04T06:20:10.213Z,4.70
2022-10-04T06:21:10.168Z,2.50
2022-10-04T06:22:10.180Z,2.50
2022-10-04T06:23:01.002Z,2.50
2022-10-04T06:24:05.415Z,2.50
2022-10-04T06:25:04.089Z,2.50
2022-10-04T06:26:04.766Z,2.50
2022-10-04T06:27:07.747Z,2.50
2022-10-04T06:28:01.319Z,2.50
2022-10-04T06:29:02.584Z,2.50
2022-10-04T06:30:03.723Z,2.50
2022-10-04T06:31:10.208Z,2.50
2022-10-04T06:32:00.243Z,2.50
2022-10-04T06:33:01.273Z,2.50
2022-10-04T06:34:09.457Z,2.50
2022-10-04T06:35:10.185Z,2.50
2022-10-04T06:36:10.185Z,2.50
2022-10-04T06:37:10.185Z,2.50
2022-10-04T06:38:10.176Z,2.50
2022-10-04T06:39:10.169Z,2.50
2022-10-04T06:40:10.193Z,2.50
2022-10-04T06:41:10.178Z,2.50
2022-10-04T06:42:10.182Z,2.50
2022-10-04T06:43:07.738Z,2.50
2022-10-04T06:44:00.262Z,2.50
2022-10-04T06:45:03.553Z,2.50
2022-10-04T06:46:00.361Z,2.50
2022-10-04T06:47:10.181Z,2.50
2022-10-04T06:48:07.675Z,2.50
2022-10-04T06:49:01.294Z,2.50
2022-10-04T06:50:01.289Z,2.50
2022-10-04T06:51:09.889Z,4.10
2022-10-04T06:52:10.184Z,4.10
2022-10-04T06:53:10.174Z,4.10
2022-10-04T06:54:10.171Z,4.10
2022-10-04T06:55:10.202Z,4.10
2022-10-04T06:56:07.788Z,4.10
2022-10-04T06:57:10.193Z,4.10
2022-10-04T06:58:10.170Z,4.10
2022-10-04T06:59:10.177Z,4.10
2022-10-04T07:00:00.288Z,4.10
2022-10-04T07:01:10.206Z,4.10
2022-10-04T07:02:05.609Z,4.10
2022-10-04T07:03:03.836Z,4.10
2022-10-04T07:04:05.126Z,4.10
2022-10-04T07:05:08.475Z,4.10
2022-10-04T07:06:01.783Z,4.10
2022-10-04T07:07:10.187Z,4.10
2022-10-04T07:08:05.029Z,4.10
2022-10-04T07:09:02.109Z,4.10
2022-10-04T07:10:00.260Z,4.10
2022-10-04T07:11:12.296Z,4.10
2022-10-04T07:12:04.627Z,4.10
2022-10-04T07:13:03.518Z,4.10
2022-10-04T07:14:00.251Z,4.10
2022-10-04T07:15:01.837Z,4.10
2022-10-04T07:16:01.315Z,4.10
2022-10-04T07:17:02.253Z,4.10
2022-10-04T07:18:02.931Z,4.10
2022-10-04T07:19:10.168Z,4.10
2022-10-04T07:20:00.567Z,4.10
2022-10-04T07:21:03.476Z,4.10
2022-10-04T07:22:00.273Z,1.50
2022-10-04T07:23:04.182Z,1.50
2022-10-04T07:24:00.690Z,1.50
2022-10-04T07:25:10.180Z,1.50
2022-10-04T07:26:04.689Z,1.50
2022-10-04T07:27:01.966Z,1.50
2022-10-04T07:28:03.628Z,1.50
2022-10-04T07:29:02.858Z,1.50
2022-10-04T07:30:03.384Z,1.50
2022-10-04T07:31:02.692Z,1.50
2022-10-04T07:32:04.825Z,1.50
2022-10-04T07:33:00.334Z,1.50
2022-10-04T07:34:01.549Z,1.50
2022-10-04T07:35:10.197Z,1.50
2022-10-04T07:36:10.171Z,1.50
2022-10-04T07:37:05.759Z,1.50
2022-10-04T07:38:03.631Z,1.50
2022-10-04T07:39:09.279Z,1.50
2022-10-04T07:40:05.492Z,1.50
2022-10-04T07:41:00.344Z,1.50
2022-10-04T07:42:10.170Z,1.50
2022-10-04T07:43:10.179Z,1.50
2022-10-04T07:44:04.209Z,1.50
2022-10-04T07:45:04.234Z,1.50
2022-10-04T07:46:03.837Z,1.50
2022-10-04T07:47:10.168Z,1.50
2022-10-04T07:48:03.143Z,1.50
2022-10-04T07:49:00.487Z,1.50
2022-10-04T07:50:10.168Z,1.50
2022-10-04T07:51:10.184Z,1.40
2022-10-04T07:52:03.557Z,1.40
2022-10-04T07:53:07.110Z,1.40
2022-10-04T07:54:00.270Z,1.40
2022-10-04T07:55:07.805Z,1.40
2022-10-04T07:56:05.152Z,1.40
2022-10-04T07:57:10.176Z,1.40
2022-10-04T07:58:00.432Z,1.40
2022-10-04T07:59:10.220Z,1.40
2022-10-04T08:00:03.793Z,1.40
2022-10-04T08:01:09.481Z,1.40
2022-10-04T08:02:07.770Z,1.40
2022-10-04T08:03:10.376Z,1.40
2022-10-04T08:04:01.296Z,1.40
2022-10-04T08:05:00.267Z,1.40
2022-10-04T08:06:10.171Z,1.40
2022-10-04T08:07:02.201Z,1.40
2022-10-04T08:08:01.292Z,1.40
2022-10-04T08:09:00.296Z,1.40
2022-10-04T08:10:10.214Z,1.40
2022-10-04T08:11:10.177Z,1.40
2022-10-04T08:12:10.177Z,1.40
2022-10-04T08:13:05.951Z,1.40
2022-10-04T08:14:10.180Z,1.40
2022-10-04T08:15:10.193Z,1.40
2022-10-04T08:16:03.009Z,1.40
2022-10-04T08:17:15.241Z,1.40
2022-10-04T08:18:05.445Z,1.40
2022-10-04T08:19:00.260Z,1.40
2022-10-04T08:20:06.333Z,1.40
2022-10-04T08:21:05.146Z,1.40
2022-10-04T08:22:00.252Z,2.20
2022-10-04T08:23:10.191Z,2.20
2022-10-04T08:24:07.467Z,2.20
2022-10-04T08:25:03.518Z,2.20
2022-10-04T08:26:10.179Z,2.20
2022-10-04T08:27:10.165Z,2.20
2022-10-04T08:28:02.425Z,2.20
2022-10-04T08:29:03.529Z,2.20
2022-10-04T08:30:00.246Z,2.20
2022-10-04T08:31:07.766Z,2.20
2022-10-04T08:32:04.892Z,2.20
2022-10-04T08:33:10.221Z,2.20
2022-10-04T08:34:07.824Z,2.20
2022-10-04T08:35:01.375Z,2.20
2022-10-04T08:36:10.194Z,2.20
2022-10-04T08:37:10.212Z,2.20
2022-10-04T08:38:03.546Z,2.20
2022-10-04T08:39:00.324Z,2.20
2022-10-04T08:40:13.023Z,2.20
2022-10-04T08:41:10.184Z,2.20
2022-10-04T08:42:03.542Z,2.20
2022-10-04T08:43:10.180Z,2.20
2022-10-04T08:44:00.289Z,2.20
2022-10-04T08:45:03.552Z,2.20
2022-10-04T08:46:00.377Z,2.20
2022-10-04T08:47:01.315Z,2.20
2022-10-04T08:48:10.169Z,2.20
2022-10-04T08:49:00.286Z,2.20
2022-10-04T08:50:10.197Z,2.20
2022-10-04T08:51:10.178Z,2.20
2022-10-04T08:52:10.222Z,2.30
2022-10-04T08:53:11.080Z,2.30
2022-10-04T08:54:10.237Z,2.30
2022-10-04T08:55:10.184Z,2.30
2022-10-04T08:56:01.299Z,2.30
2022-10-04T08:57:14.996Z,2.30
2022-10-04T08:58:06.893Z,2.30
2022-10-04T08:59:10.184Z,2.30
2022-10-04T09:00:03.594Z,2.30
2022-10-04T09:01:10.245Z,2.30
2022-10-04T09:02:10.170Z,2.30
2022-10-04T09:03:07.662Z,2.30
2022-10-04T09:04:10.173Z,2.30
2022-10-04T09:05:00.307Z,2.30
2022-10-04T09:06:10.171Z,2.30
2022-10-04T09:07:10.176Z,2.30
2022-10-04T09:08:10.226Z,2.30
2022-10-04T09:09:10.176Z,2.30
2022-10-04T09:10:03.545Z,2.30
2022-10-04T09:11:07.614Z,2.30
2022-10-04T09:12:10.233Z,2.30
2022-10-04T09:13:10.189Z,2.30
2022-10-04T09:14:10.181Z,2.30
2022-10-04T09:15:10.181Z,2.30
2022-10-04T09:16:10.210Z,2.30
2022-10-04T09:17:01.281Z,2.30
2022-10-04T09:18:07.100Z,2.30
2022-10-04T09:19:01.286Z,2.30
2022-10-04T09:20:36.845Z,2.30
2022-10-04T09:21:10.228Z,2.30
2022-10-04T09:22:01.325Z,5.90
2022-10-04T09:23:10.210Z,5.90
2022-10-04T09:24:01.291Z,5.90
2022-10-04T09:25:10.254Z,5.90
2022-10-04T09:26:01.283Z,5.90
2022-10-04T09:27:10.206Z,5.90
2022-10-04T09:28:00.339Z,5.90
2022-10-04T09:29:10.254Z,5.90
2022-10-04T09:30:09.880Z,5.90
2022-10-04T09:31:07.763Z,5.90
2022-10-04T09:32:10.242Z,5.90
2022-10-04T09:33:01.281Z,5.90
2022-10-04T09:34:10.191Z,5.90
2022-10-04T09:35:10.195Z,5.90
2022-10-04T09:36:00.322Z,5.90
2022-10-04T09:37:01.317Z,5.90
2022-10-04T09:38:07.569Z,5.90
2022-10-04T09:39:25.148Z,5.90
2022-10-04T09:40:07.644Z,5.90
2022-10-04T09:41:10.197Z,5.90
2022-10-04T09:42:10.252Z,5.90
2022-10-04T09:43:07.611Z,5.90
2022-10-04T09:44:07.760Z,5.90
2022-10-04T09:45:10.181Z,5.90
2022-10-04T09:46:10.210Z,5.90
2022-10-04T09:47:03.545Z,5.90
2022-10-04T09:48:07.647Z,5.90
2022-10-04T09:49:01.281Z,5.90
2022-10-04T09:50:03.535Z,5.90
2022-10-04T09:51:00.266Z,5.90
2022-10-04T09:52:10.177Z,0.90
2022-10-04T09:53:03.539Z,0.90
2022-10-04T09:54:10.189Z,0.90
2022-10-04T09:55:07.724Z,0.90
2022-10-04T09:56:00.338Z,0.90
2022-10-04T09:57:07.809Z,0.90
2022-10-04T09:58:10.178Z,0.90
2022-10-04T09:59:10.182Z,0.90
2022-10-04T10:00:07.895Z,0.90
2022-10-04T10:01:01.283Z,0.90
2022-10-04T10:02:00.381Z,0.90
2022-10-04T10:03:00.380Z,0.90
2022-10-04T10:04:10.183Z,0.90
2022-10-04T10:05:10.216Z,0.90
2022-10-04T10:06:10.197Z,0.90
2022-10-04T10:07:08.911Z,0.90
2022-10-04T10:08:01.308Z,0.90
2022-10-04T10:09:10.246Z,0.90
2022-10-04T10:10:06.986Z,0.90
2022-10-04T10:11:06.364Z,0.90
2022-10-04T10:12:10.178Z,0.90
2022-10-04T10:13:01.285Z,0.90
2022-10-04T10:14:10.175Z,0.90
2022-10-04T10:15:10.206Z,0.90
2022-10-04T10:16:07.343Z,0.90
2022-10-04T10:17:10.181Z,0.90
2022-10-04T10:18:10.176Z,0.90
2022-10-04T10:19:10.216Z,0.90
2022-10-04T10:20:00.305Z,0.90
2022-10-04T10:21:10.194Z,0.90
2022-10-04T10:22:10.195Z,3.80
2022-10-04T10:23:10.182Z,3.80
2022-10-04T10:24:03.542Z,3.80
2022-10-04T10:25:07.664Z,3.80
2022-10-04T10:26:10.185Z,3.80
2022-10-04T10:27:07.730Z,3.80
2022-10-04T10:28:10.224Z,3.80
2022-10-04T10:29:00.279Z,3.80
2022-10-04T10:30:10.210Z,3.80
2022-10-04T10:31:10.271Z,3.80
2022-10-04T10:32:01.330Z,3.80
2022-10-04T10:33:10.181Z,3.80
2022-10-04T10:34:10.173Z,3.80
2022-10-04T10:35:00.287Z,3.80
2022-10-04T10:36:10.219Z,3.80
2022-10-04T10:37:00.288Z,3.80
2022-10-04T10:38:10.239Z,3.80
2022-10-04T10:39:10.196Z,3.80
2022-10-04T10:40:10.201Z,3.80
2022-10-04T10:41:10.202Z,3.80
2022-10-04T10:42:03.550Z,3.80
2022-10-04T10:43:09.406Z,3.80
2022-10-04T10:44:10.229Z,3.80
2022-10-04T10:45:10.186Z,3.80
2022-10-04T10:46:02.739Z,3.80
2022-10-04T10:47:07.853Z,3.80
2022-10-04T10:48:00.341Z,3.80
2022-10-04T10:49:10.224Z,3.80
2022-10-04T10:50:03.619Z,3.80
2022-10-04T10:51:10.224Z,3.80
2022-10-04T10:52:10.223Z,2.30
2022-10-04T10:53:10.209Z,2.30
2022-10-04T10:54:10.195Z,2.30
2022-10-04T10:55:10.251Z,2.30
2022-10-04T10:56:07.758Z,2.30
2022-10-04T10:57:10.199Z,2.30
2022-10-04T10:58:01.345Z,2.30
2022-10-04T10:59:03.533Z,2.30
2022-10-04T11:00:07.527Z,2.30
2022-10-04T11:01:01.339Z,2.30
2022-10-04T11:02:10.477Z,2.30
2022-10-04T11:03:13.706Z,2.30
2022-10-04T11:04:10.268Z,2.30
2022-10-04T11:05:01.279Z,2.30
2022-10-04T11:06:07.885Z,2.30
2022-10-04T11:07:10.197Z,2.30
2022-10-04T11:08:10.233Z,2.30
2022-10-04T11:09:01.318Z,2.30
2022-10-04T11:10:10.226Z,2.30
2022-10-04T11:11:03.572Z,2.30
2022-10-04T11:12:10.217Z,2.30
2022-10-04T11:13:10.186Z,2.30
2022-10-04T11:14:10.187Z,2.30
2022-10-04T11:15:10.198Z,2.30
2022-10-04T11:16:10.248Z,2.30
2022-10-04T11:17:07.792Z,2.30
2022-10-04T11:18:00.345Z,2.30
2022-10-04T11:19:10.183Z,2.30
2022-10-04T11:20:10.200Z,2.30
2022-10-04T11:21:10.221Z,2.30
2022-10-04T11:22:10.207Z,1.80
2022-10-04T11:23:03.574Z,1.80
2022-10-04T11:24:10.192Z,1.80
2022-10-04T11:25:03.565Z,1.80
2022-10-04T11:26:01.318Z,1.80
2022-10-04T11:27:03.648Z,1.80
2022-10-04T11:28:10.229Z,1.80
2022-10-04T11:29:00.335Z,1.80
2022-10-04T11:30:08.319Z,1.80
2022-10-04T11:31:10.264Z,1.80
2022-10-04T11:32:00.352Z,1.80
2022-10-04T11:33:03.579Z,1.80
2022-10-04T11:34:13.233Z,1.80
2022-10-04T11:35:10.273Z,1.80
2022-10-04T11:36:10.184Z,1.80
2022-10-04T11:37:10.230Z,1.80
2022-10-04T11:38:10.234Z,1.80
2022-10-04T11:39:00.327Z,1.80
2022-10-04T11:40:10.206Z,1.80
2022-10-04T11:41:01.347Z,1.80
2022-10-04T11:42:05.136Z,1.80
2022-10-04T11:43:00.325Z,1.80
2022-10-04T11:44:10.234Z,1.80
2022-10-04T11:45:10.245Z,1.80
2022-10-04T11:46:01.318Z,1.80
2022-10-04T11:47:10.232Z,1.80
2022-10-04T11:48:10.206Z,1.80
2022-10-04T11:49:07.308Z,1.80
2022-10-04T11:50:10.241Z,1.80
2022-10-04T11:51:10.242Z,1.80
2022-10-04T11:52:02.495Z,2.80
2022-10-04T11:53:10.236Z,2.80
2022-10-04T11:54:07.835Z,2.80
2022-10-04T11:55:10.207Z,2.80
2022-10-04T11:56:06.948Z,2.80
2022-10-04T11:57:03.599Z,2.80
2022-10-04T11:58:12.202Z,2.80
2022-10-04T11:59:10.191Z,2.80
2022-10-04T12:00:01.474Z,2.80
2022-10-04T12:01:03.587Z,2.80
2022-10-04T12:02:10.249Z,2.80
2022-10-04T12:03:10.264Z,2.80
2022-10-04T12:04:01.530Z,2.80
2022-10-04T12:05:01.426Z,2.80
2022-10-04T12:06:03.613Z,2.80
2022-10-04T12:07:10.210Z,2.80
2022-10-04T12:08:10.209Z,2.80
2022-10-04T12:09:10.199Z,2.80
2022-10-04T12:10:01.440Z,2.80
2022-10-04T12:11:10.204Z,2.80
2022-10-04T12:12:10.209Z,2.80
2022-10-04T12:13:10.212Z,2.80
2022-10-04T12:14:00.455Z,2.80
2022-10-04T12:15:03.578Z,2.80
2022-10-04T12:16:10.281Z,2.80
2022-10-04T12:17:10.204Z,2.80
2022-10-04T12:18:03.613Z,2.80
2022-10-04T12:19:10.201Z,2.80
2022-10-04T12:20:12.277Z,2.80
2022-10-04T12:21:10.360Z,2.80
2022-10-04T12:22:01.331Z,3.20
2022-10-04T12:23:00.322Z,3.20
2022-10-04T12:24:10.206Z,3.20
2022-10-04T12:25:03.544Z,3.20
2022-10-04T12:26:10.203Z,3.20
2022-10-04T12:27:00.318Z,3.20
2022-10-04T12:28:10.252Z,3.20
2022-10-04T12:29:08.645Z,3.20
2022-10-04T12:30:01.314Z,3.20
2022-10-04T12:31:00.307Z,3.20
2022-10-04T12:32:10.202Z,3.20
2022-10-04T12:33:01.277Z,3.20
2022-10-04T12:34:10.215Z,3.20
2022-10-04T12:35:07.729Z,3.20
2022-10-04T12:36:10.250Z,3.20
2022-10-04T12:37:10.210Z,3.20
2022-10-04T12:38:10.201Z,3.20
2022-10-04T12:39:10.204Z,3.20
2022-10-04T12:40:10.238Z,3.20
2022-10-04T12:41:00.296Z,3.20
2022-10-04T12:42:09.479Z,3.20
2022-10-04T12:43:05.447Z,3.20
2022-10-04T12:44:01.297Z,3.20
2022-10-04T12:45:10.247Z,3.20
2022-10-04T12:46:10.247Z,3.20
2022-10-04T12:47:10.218Z,3.20
2022-10-04T12:48:06.843Z,3.20
2022-10-04T12:49:10.190Z,3.20
2022-10-04T12:50:10.209Z,3.20
2022-10-04T12:51:10.224Z,3.20
2022-10-04T12:52:10.213Z,1.00
2022-10-04T12:53:03.539Z,1.00
2022-10-04T12:54:10.201Z,1.00
2022-10-04T12:55:10.206Z,1.00
2022-10-04T12:56:00.311Z,1.00
2022-10-04T12:57:10.209Z,1.00
2022-10-04T12:58:05.778Z,1.00
2022-10-04T12:59:00.680Z,1.00
2022-10-04T13:00:10.242Z,1.00
2022-10-04T13:01:09.507Z,1.00
2022-10-04T13:02:09.453Z,1.00
2022-10-04T13:03:07.593Z,1.00
2022-10-04T13:04:10.290Z,1.00
2022-10-04T13:05:00.290Z,1.00
2022-10-04T13:06:09.303Z,1.00
2022-10-04T13:07:10.226Z,1.00
2022-10-04T13:08:05.485Z,1.00
2022-10-04T13:09:10.200Z,1.00
2022-10-04T13:10:24.106Z,1.00
2022-10-04T13:11:07.622Z,1.00
2022-10-04T13:12:10.209Z,1.00